Nearby METAR Reports

 

KSJC - San Jose, California, USA
Distance from station: NE 14km
Updated: 20/06/2019 18:53
Few Clouds
Few Clouds
 Wind from NNW
Wind: NNW 15 km/h
Temperature: 24°C
Dew Point: 16°C
Humidity: 61%
Barometer: 1010.8 hPa
Clouds: Few Clouds
Visibility: 16 km
Cloud details: Few Clouds 488 m
2019/06/20 21:53 KSJC 202153Z 33008KT 10SM FEW016 24/16 A2985 RMK AO2 SLP109 T02440156
KNUQ - Moffett Nas/Mtn, California, USA
Distance from station: N 14km
Updated: 20/06/2019 18:56
Clear
Clear
 Wind from N
Wind: N 24 km/h
Temperature: 23°C
Dew Point: 14°C
Humidity: 57%
Barometer: 1011.5 hPa
Clouds: Clear
Visibility: 16 km
2019/06/20 21:56 KNUQ 202156Z 35013KT 10SM CLR 23/14 A2987 RMK AO2 SLP116 T02330139
 
KPAO - Palo Alto, California, USA
Distance from station: NNW 23km
Updated: 20/06/2019 16:47
NOT Current
Clear
Clear
 Wind from N
Wind: N 11 km/h
Temperature: 22°C
Dew Point: 14°C
Humidity: 61%
Barometer: 1012.2 hPa
Clouds: Clear
Visibility: 16 km
2019/06/20 19:47 KPAO 201947Z 36006KT 10SM SKC 22/14 A2989
KRHV - San Jose/Reid, California, USA
Distance from station: ENE 19km
Updated: 20/06/2019 18:47
Clear
Clear
 Wind from NNW
Wind: NNW 19 km/h
Temperature: 27°C
Heat Index: 27°C
Dew Point: 14°C
Humidity: 45%
Barometer: 1010.8 hPa
Clouds: Clear
Visibility: 16 km
2019/06/20 21:47 KRHV 202147Z 33010KT 10SM SKC 27/14 A2985
 
KOAK - Oakland, California, USA
Distance from station: NNW 50km
Updated: 20/06/2019 18:53
Few Clouds
Few Clouds
 Wind from WNW
Wind: WNW 31 km/h
Temperature: 20°C
Dew Point: 12°C
Humidity: 60%
Barometer: 1012.2 hPa
Clouds: Few Clouds
Visibility: 14 km
Cloud details: Few Clouds 244 m
2019/06/20 21:53 KOAK 202153Z 30017KT 9SM FEW008 20/12 A2989 RMK AO2 SLP122 T02000122
KSQL - San Carlos Airpo, California, USA
Distance from station: NW 34km
Updated: 20/06/2019 18:47
Clear
Clear
 Wind from WSW
Wind: WSW 26 km/h
Temperature: 21°C
Dew Point: 13°C
Humidity: 60%
Barometer: 1011.5 hPa
Clouds: Clear
Visibility: 16 km
2019/06/20 21:47 KSQL 202147Z 25014KT 10SM SKC 21/13 A2987
 
KSFO - San Francisco, California, USA
Distance from station: NW 49km
Updated: 20/06/2019 18:56
Few Clouds
Few Clouds
 Wind from SW
Wind: SW 15 km/h
Temperature: 22°C
Dew Point: 12°C
Humidity: 53%
Barometer: 1011.9 hPa
Clouds: Few Clouds
Visibility: 16 km
Cloud details: Few Clouds 457 m
2019/06/20 21:56 KSFO 202156Z 22008KT 160V290 10SM FEW015 22/12 A2988 RMK AO2 SLP117 T02220117
KE16 - San Martin, California, USA
Distance from station: ESE 43km
Updated: 30/05/2019 16:30
NOT Current

 Wind from SE
Wind: SE 9 km/h
Temperature: 18°C
Dew Point: 11°C
Humidity: 64%
Barometer: 1014.6 hPa
2019/05/30 19:30 KE16 301930Z AUTO 13005KT 18/11 A2996 RMK AO2 PWINO PNO
 
KWVI - Watsonville, California, USA
Distance from station: SSE 44km
Updated: 20/06/2019 18:53
Overcast
Overcast
 Wind from W
Wind: W 15 km/h
Temperature: 18°C
Dew Point: 13°C
Humidity: 73%
Barometer: 1013.9 hPa
Clouds: Overcast
Visibility: 16 km
Cloud details: Overcast 457 m
2019/06/20 21:53 KWVI 202153Z AUTO 27008KT 240V300 10SM OVC015 18/13 A2994 RMK AO2 SLP137 T01830128 $
KHAF - Half Moon Bay, California, USA
Distance from station: WNW 50km
Updated: 20/06/2019 19:20
Haze, Few clouds
Haze, Few clouds
 Wind from SSE
Wind: SSE 22 km/h
Temperature: 17°C
Dew Point: 12°C
Humidity: 73%
Barometer: 1013.5 hPa
Summary: Haze
Clouds: Few Clouds
Visibility: 8 km
Cloud details: Few Clouds 457 m
2019/06/20 22:20 KHAF 202220Z AUTO 16012KT 5SM HZ FEW015 17/12 A2993 RMK AO2
 
KHWD - Hayward, California, USA
Distance from station: N 44km
Updated: 20/06/2019 18:54
Clear
Clear
 Wind from WNW
Wind: WNW 26 km/h
Temperature: 22°C
Dew Point: 13°C
Humidity: 57%
Barometer: 1011.9 hPa
Clouds: Clear
Visibility: 16 km
2019/06/20 21:54 KHWD 202154Z 29014KT 10SM CLR 22/13 A2988 RMK AO2 SLP125 T02220128
KLVK - Livermore, California, USA
Distance from station: NNE 51km
Updated: 20/06/2019 18:53
Clear
Clear
 Wind from W
Wind: W 22 km/h
Temperature: 26°C
Dew Point: 12°C
Humidity: 42%
Barometer: 1010.2 hPa
Clouds: Clear
Visibility: 16 km
2019/06/20 21:53 KLVK 202153Z 28012KT 10SM CLR 26/12 A2983 RMK AO2 SLP099 T02610122